createdAt,value
2022-12-24T00:02:29.646Z,100.00
2022-12-24T00:07:31.805Z,100.00
2022-12-24T00:12:33.596Z,100.00
2022-12-24T00:17:35.467Z,100.00
2022-12-24T00:22:37.238Z,100.00
2022-12-24T00:27:38.951Z,100.00
2022-12-24T00:32:40.596Z,100.00
2022-12-24T00:37:42.237Z,100.00
2022-12-24T00:42:43.934Z,100.00
2022-12-24T00:47:45.582Z,100.00
2022-12-24T00:52:47.428Z,100.00
2022-12-24T00:57:49.053Z,100.00
2022-12-24T01:02:50.812Z,100.00
2022-12-24T01:07:54.015Z,100.00
2022-12-24T01:12:55.640Z,100.00
2022-12-24T01:17:58.419Z,100.00
2022-12-24T01:23:00.394Z,100.00
2022-12-24T01:28:01.992Z,100.00
2022-12-24T01:33:03.675Z,100.00
2022-12-24T01:38:05.297Z,100.00
2022-12-24T01:43:28.154Z,100.00
2022-12-24T01:48:49.906Z,100.00
2022-12-24T01:53:58.581Z,100.00
2022-12-24T01:59:10.458Z,100.00
2022-12-24T02:04:36.521Z,100.00
2022-12-24T02:09:39.873Z,100.00
2022-12-24T02:14:41.544Z,100.00
2022-12-24T02:20:04.988Z,100.00
2022-12-24T02:25:30.779Z,99.97
2022-12-24T02:30:36.156Z,100.00
2022-12-24T02:35:46.859Z,100.00
2022-12-24T02:41:07.201Z,100.00
2022-12-24T02:46:13.383Z,100.00
2022-12-24T02:51:16.191Z,100.00
2022-12-24T02:56:46.008Z,100.00
2022-12-24T03:02:01.099Z,100.00
2022-12-24T03:07:11.903Z,100.00
2022-12-24T03:12:26.899Z,100.00
2022-12-24T03:17:28.877Z,100.00
2022-12-24T03:22:32.891Z,99.93
2022-12-24T03:27:36.386Z,98.99
2022-12-24T03:32:38.926Z,99.13
2022-12-24T03:37:40.855Z,98.77
2022-12-24T03:42:42.695Z,99.00
2022-12-24T03:47:44.747Z,98.65
2022-12-24T03:52:46.379Z,98.63
2022-12-24T03:57:48.352Z,99.08
2022-12-24T04:02:50.119Z,98.97
2022-12-24T04:07:51.839Z,98.54
2022-12-24T04:12:53.503Z,98.68
2022-12-24T04:17:55.107Z,97.34
2022-12-24T04:22:56.757Z,97.04
2022-12-24T04:27:58.361Z,97.39
2022-12-24T04:32:59.979Z,97.00
2022-12-24T04:38:01.610Z,97.11
2022-12-24T04:43:03.313Z,97.08
2022-12-24T04:48:05.054Z,96.52
2022-12-24T04:53:06.671Z,96.30
2022-12-24T04:58:08.589Z,96.41
2022-12-24T05:03:10.451Z,96.21
2022-12-24T05:08:12.281Z,96.20
2022-12-24T05:13:13.884Z,96.46
2022-12-24T05:18:15.671Z,96.13
2022-12-24T05:23:38.589Z,94.96
2022-12-24T05:28:40.188Z,93.59
2022-12-24T05:33:41.844Z,94.05
2022-12-24T05:38:44.311Z,92.67
2022-12-24T05:43:46.321Z,92.67
2022-12-24T05:48:48.936Z,93.34
2022-12-24T05:53:52.280Z,93.71
2022-12-24T05:58:54.895Z,93.57
2022-12-24T06:03:56.706Z,94.16
2022-12-24T06:08:59.007Z,94.21
2022-12-24T06:14:00.704Z,94.30
2022-12-24T06:19:02.319Z,94.41
2022-12-24T06:24:04.267Z,94.60
2022-12-24T06:29:06.184Z,94.37
2022-12-24T06:34:08.034Z,94.63
2022-12-24T06:39:09.744Z,93.19
2022-12-24T06:44:11.477Z,91.97
2022-12-24T06:49:13.283Z,90.87
2022-12-24T06:54:14.889Z,91.33
2022-12-24T06:59:16.500Z,91.95
2022-12-24T07:04:20.478Z,92.56
2022-12-24T07:09:22.477Z,92.93
2022-12-24T07:14:24.111Z,93.15
2022-12-24T07:19:25.806Z,92.54
2022-12-24T07:24:27.466Z,92.68
2022-12-24T07:29:29.051Z,92.84
2022-12-24T07:34:30.939Z,92.96
2022-12-24T07:39:32.624Z,93.22
2022-12-24T07:44:35.084Z,92.65
2022-12-24T07:49:36.683Z,92.58
2022-12-24T07:54:38.378Z,92.08
2022-12-24T07:59:39.993Z,91.29
2022-12-24T08:04:41.667Z,91.66
2022-12-24T08:09:44.509Z,91.78
2022-12-24T08:14:46.150Z,92.23
2022-12-24T08:19:47.964Z,92.20
2022-12-24T08:24:49.561Z,92.61
2022-12-24T08:29:51.168Z,92.67
2022-12-24T08:34:52.787Z,92.61
2022-12-24T08:39:54.380Z,92.59
2022-12-24T08:44:55.971Z,91.96
2022-12-24T08:49:57.550Z,92.44
2022-12-24T08:54:59.204Z,92.59
2022-12-24T09:00:00.819Z,91.94
2022-12-24T09:05:02.465Z,91.85
2022-12-24T09:10:04.978Z,91.87
2022-12-24T09:15:08.209Z,92.06
2022-12-24T09:20:10.545Z,92.05
2022-12-24T09:25:12.443Z,90.71
2022-12-24T09:30:14.698Z,89.67
2022-12-24T09:35:16.510Z,89.32
2022-12-24T09:40:28.343Z,88.38
2022-12-24T09:45:38.324Z,87.66
2022-12-24T09:50:54.740Z,85.39
2022-12-24T09:56:03.205Z,86.50
2022-12-24T10:01:05.146Z,84.66
2022-12-24T10:06:27.055Z,85.07
2022-12-24T10:12:04.189Z,84.05
2022-12-24T10:17:14.909Z,81.87
2022-12-24T10:22:26.472Z,80.61
2022-12-24T10:27:38.218Z,82.19
2022-12-24T10:32:40.332Z,79.69
2022-12-24T10:37:47.933Z,80.82
2022-12-24T10:42:51.500Z,80.93
2022-12-24T10:47:58.700Z,79.03
2022-12-24T10:53:33.538Z,77.40
2022-12-24T10:58:35.969Z,76.68
2022-12-24T11:03:38.412Z,78.29
2022-12-24T11:08:43.320Z,77.69
2022-12-24T11:13:55.232Z,76.89
2022-12-24T11:18:59.331Z,76.47
2022-12-24T11:24:06.464Z,76.82
2022-12-24T11:29:20.565Z,75.93
2022-12-24T11:34:30.641Z,73.95
2022-12-24T11:39:39.761Z,74.36
2022-12-24T11:44:48.590Z,73.11
2022-12-24T11:49:50.204Z,71.99
2022-12-24T11:55:16.343Z,73.56
2022-12-24T12:00:18.703Z,73.26
2022-12-24T12:05:31.765Z,72.59
2022-12-24T12:10:39.211Z,73.87
2022-12-24T12:16:01.525Z,73.17
2022-12-24T12:21:17.241Z,74.10
2022-12-24T12:26:28.244Z,74.18
2022-12-24T12:31:40.309Z,73.96
2022-12-24T12:37:20.784Z,74.94
2022-12-24T12:42:35.229Z,75.53
2022-12-24T12:48:01.459Z,76.20
2022-12-24T12:53:15.413Z,76.40
2022-12-24T12:58:22.863Z,77.12
2022-12-24T13:03:33.705Z,77.85
2022-12-24T13:09:06.062Z,78.49
2022-12-24T13:14:28.911Z,78.85
2022-12-24T13:19:37.661Z,79.58
2022-12-24T13:24:39.683Z,79.77
2022-12-24T13:30:01.056Z,79.79
2022-12-24T13:35:20.875Z,79.97
2022-12-24T13:40:23.615Z,79.24
2022-12-24T13:45:28.918Z,79.18
2022-12-24T13:50:39.526Z,79.29
2022-12-24T13:55:52.813Z,77.66
2022-12-24T14:00:59.025Z,77.92
2022-12-24T14:06:23.611Z,78.27
2022-12-24T14:11:29.187Z,78.23
2022-12-24T14:16:50.326Z,78.73
2022-12-24T14:21:57.996Z,78.68
2022-12-24T14:27:35.564Z,79.28
2022-12-24T14:32:41.257Z,78.77
2022-12-24T14:37:46.555Z,79.82
2022-12-24T14:43:06.851Z,79.69
2022-12-24T14:48:16.448Z,79.28
2022-12-24T14:53:36.886Z,80.33
2022-12-24T14:58:42.301Z,80.68
2022-12-24T15:03:44.252Z,80.82
2022-12-24T15:08:49.983Z,81.29
2022-12-24T15:13:55.613Z,81.36
2022-12-24T15:19:01.503Z,81.85
2022-12-24T15:24:04.257Z,81.94
2022-12-24T15:29:21.053Z,82.56
2022-12-24T15:34:30.055Z,82.62
2022-12-24T15:39:32.136Z,83.00
2022-12-24T15:44:36.893Z,83.39
2022-12-24T15:49:38.814Z,83.66
2022-12-24T15:54:55.439Z,84.28
2022-12-24T16:00:01.030Z,84.72
2022-12-24T16:05:21.596Z,84.57
2022-12-24T16:10:25.492Z,84.96
2022-12-24T16:15:27.311Z,85.08
2022-12-24T16:20:29.379Z,85.33
2022-12-24T16:25:30.992Z,85.46
2022-12-24T16:30:33.039Z,85.57
2022-12-24T16:35:36.594Z,85.91
2022-12-24T16:40:38.272Z,85.99
2022-12-24T16:45:40.326Z,86.23
2022-12-24T16:50:41.940Z,86.35
2022-12-24T16:55:43.989Z,86.22
2022-12-24T17:00:46.165Z,86.50
2022-12-24T17:05:47.974Z,86.62
2022-12-24T17:10:50.991Z,86.89
2022-12-24T17:15:52.790Z,86.82
2022-12-24T17:21:01.804Z,87.06
2022-12-24T17:26:09.012Z,86.65
2022-12-24T17:31:19.128Z,86.86
2022-12-24T17:36:21.421Z,87.26
2022-12-24T17:41:23.291Z,87.60
2022-12-24T17:46:24.964Z,87.88
2022-12-24T17:51:27.739Z,87.77
2022-12-24T17:56:29.985Z,88.21
2022-12-24T18:01:32.259Z,88.43
2022-12-24T18:06:34.258Z,88.38
2022-12-24T18:11:37.371Z,89.27
2022-12-24T18:16:40.295Z,89.42
2022-12-24T18:21:42.036Z,89.19
2022-12-24T18:26:45.627Z,89.48
2022-12-24T18:31:47.359Z,89.21
2022-12-24T18:36:54.898Z,88.99
2022-12-24T18:41:57.206Z,89.16
2022-12-24T18:47:00.155Z,89.06
2022-12-24T18:52:06.884Z,89.20
2022-12-24T18:57:08.957Z,89.17
2022-12-24T19:02:10.691Z,89.54
2022-12-24T19:07:12.394Z,89.62
2022-12-24T19:12:14.806Z,89.56
2022-12-24T19:17:16.405Z,89.38
2022-12-24T19:22:17.992Z,89.38
2022-12-24T19:27:19.602Z,89.28
2022-12-24T19:32:21.209Z,88.78
2022-12-24T19:37:23.184Z,87.66
2022-12-24T19:42:24.859Z,86.88
2022-12-24T19:47:26.967Z,87.05
2022-12-24T19:52:28.767Z,87.03
2022-12-24T19:57:30.437Z,86.82
2022-12-24T20:02:33.458Z,87.06
2022-12-24T20:07:35.300Z,87.29
2022-12-24T20:12:37.400Z,87.47
2022-12-24T20:17:39.003Z,87.82
2022-12-24T20:22:40.689Z,87.89
2022-12-24T20:27:42.319Z,87.91
2022-12-24T20:32:43.960Z,87.95
2022-12-24T20:37:46.495Z,87.75
2022-12-24T20:42:48.177Z,88.24
2022-12-24T20:47:49.996Z,88.44
2022-12-24T20:52:51.913Z,88.37
2022-12-24T20:57:53.564Z,88.43
2022-12-24T21:02:55.407Z,88.35
2022-12-24T21:07:57.154Z,88.99
2022-12-24T21:12:59.326Z,88.99
2022-12-24T21:18:09.913Z,89.13
2022-12-24T21:23:11.835Z,89.56
2022-12-24T21:28:13.426Z,89.64
2022-12-24T21:33:15.011Z,89.72
2022-12-24T21:38:16.654Z,90.07
2022-12-24T21:43:18.313Z,90.20
2022-12-24T21:48:39.702Z,90.10
2022-12-24T21:53:59.967Z,90.09
2022-12-24T21:59:01.795Z,90.08
2022-12-24T22:04:03.406Z,90.35
2022-12-24T22:09:23.993Z,90.41
2022-12-24T22:14:25.669Z,90.52
2022-12-24T22:19:28.171Z,91.37
2022-12-24T22:24:29.795Z,91.53
2022-12-24T22:29:31.426Z,91.51
2022-12-24T22:34:33.027Z,92.49
2022-12-24T22:39:35.072Z,92.22
2022-12-24T22:44:36.703Z,91.44
2022-12-24T22:49:38.370Z,89.69
2022-12-24T22:54:40.119Z,89.67
2022-12-24T22:59:42.040Z,88.75
2022-12-24T23:04:43.979Z,89.33
2022-12-24T23:09:45.693Z,89.26
2022-12-24T23:14:56.491Z,89.46
2022-12-24T23:19:58.425Z,89.70
2022-12-24T23:25:00.144Z,89.98
2022-12-24T23:30:01.926Z,89.98
2022-12-24T23:35:03.970Z,90.10
2022-12-24T23:40:06.230Z,90.37
2022-12-24T23:45:08.402Z,90.17
2022-12-24T23:50:11.417Z,90.51
2022-12-24T23:55:13.042Z,90.53
